createdAt,value
2022-10-03T00:03:26.570Z,12.40
2022-10-03T00:08:57.941Z,12.40
2022-10-03T00:14:07.609Z,12.50
2022-10-03T00:19:24.513Z,12.50
2022-10-03T00:24:42.342Z,12.50
2022-10-03T00:29:57.508Z,12.50
2022-10-03T00:35:20.225Z,12.60
2022-10-03T00:41:27.763Z,12.50
2022-10-03T00:47:05.469Z,12.50
2022-10-03T00:52:39.640Z,12.50
2022-10-03T00:57:58.927Z,12.50
2022-10-03T01:03:16.896Z,12.30
2022-10-03T01:09:06.818Z,12.30
2022-10-03T01:14:24.931Z,12.30
2022-10-03T01:19:49.377Z,12.30
2022-10-03T01:24:58.476Z,12.20
2022-10-03T01:30:23.827Z,12.10
2022-10-03T01:35:46.582Z,12.10
2022-10-03T01:40:57.086Z,12.20
2022-10-03T01:46:13.173Z,12.10
2022-10-03T01:51:21.974Z,12.10
2022-10-03T01:56:32.580Z,12.00
2022-10-03T02:01:47.953Z,12.00
2022-10-03T02:06:59.263Z,12.00
2022-10-03T02:12:17.786Z,11.90
2022-10-03T02:17:44.974Z,12.00
2022-10-03T02:22:54.128Z,12.10
2022-10-03T02:28:25.564Z,12.10
2022-10-03T02:33:58.646Z,12.10
2022-10-03T02:39:26.671Z,12.20
2022-10-03T02:44:56.872Z,12.10
2022-10-03T02:50:44.833Z,12.00
2022-10-03T02:56:29.359Z,12.10
2022-10-03T03:01:53.350Z,12.00
2022-10-03T03:07:18.293Z,12.00
2022-10-03T03:12:45.390Z,12.10
2022-10-03T03:17:58.936Z,12.10
2022-10-03T03:23:29.507Z,12.10
2022-10-03T03:28:43.901Z,12.20
2022-10-03T03:33:56.639Z,12.10
2022-10-03T03:39:11.193Z,12.10
2022-10-03T03:44:47.948Z,12.10
2022-10-03T03:50:12.698Z,12.20
2022-10-03T03:55:37.468Z,12.10
2022-10-03T04:01:08.297Z,12.10
2022-10-03T04:06:27.653Z,12.10
2022-10-03T04:11:49.798Z,12.10
2022-10-03T04:17:27.448Z,12.10
2022-10-03T04:22:52.812Z,12.10
2022-10-03T04:28:26.759Z,12.10
2022-10-03T04:33:41.840Z,12.00
2022-10-03T04:38:55.212Z,12.00
2022-10-03T04:44:06.028Z,12.00
2022-10-03T04:49:17.600Z,12.00
2022-10-03T04:54:28.893Z,12.00
2022-10-03T04:59:46.328Z,12.00
2022-10-03T05:05:13.280Z,12.00
2022-10-03T05:10:29.449Z,12.10
2022-10-03T05:15:41.153Z,12.10
2022-10-03T05:20:57.602Z,12.10
2022-10-03T05:26:39.751Z,12.20
2022-10-03T05:31:45.044Z,12.20
2022-10-03T05:37:04.272Z,12.20
2022-10-03T05:42:38.108Z,12.10
2022-10-03T05:47:51.686Z,12.10
2022-10-03T05:53:34.053Z,12.10
2022-10-03T05:58:58.541Z,12.10
2022-10-03T06:04:27.456Z,12.00
2022-10-03T06:10:02.931Z,12.10
2022-10-03T06:15:36.598Z,12.10
2022-10-03T06:21:13.342Z,12.10
2022-10-03T06:26:39.008Z,12.00
2022-10-03T06:32:26.196Z,12.10
2022-10-03T06:38:11.272Z,11.90
2022-10-03T06:43:43.941Z,11.90
2022-10-03T06:49:29.248Z,11.80
2022-10-03T06:55:15.048Z,11.90
2022-10-03T07:00:22.317Z,12.00
2022-10-03T07:06:01.885Z,11.80
2022-10-03T07:11:18.304Z,11.90
2022-10-03T07:16:51.086Z,11.90
2022-10-03T07:22:25.013Z,11.90
2022-10-03T07:27:39.496Z,12.00
2022-10-03T07:33:17.357Z,12.00
2022-10-03T07:39:01.719Z,12.10
2022-10-03T07:44:42.917Z,12.10
2022-10-03T07:50:45.455Z,12.10
2022-10-03T07:56:00.438Z,12.10
2022-10-03T08:01:21.687Z,12.20
2022-10-03T08:06:36.827Z,12.20
2022-10-03T08:11:55.033Z,12.20
2022-10-03T08:17:26.055Z,12.10
2022-10-03T08:22:45.634Z,12.10
2022-10-03T08:28:27.168Z,12.20
2022-10-03T08:33:50.048Z,12.30
2022-10-03T08:39:06.323Z,12.40
2022-10-03T08:44:42.436Z,12.40
2022-10-03T08:50:08.994Z,12.30
2022-10-03T08:55:42.580Z,12.40
2022-10-03T09:01:09.223Z,12.30
2022-10-03T09:07:12.188Z,12.40
2022-10-03T09:13:05.218Z,12.30
2022-10-03T09:18:34.921Z,12.40
2022-10-03T09:24:28.030Z,12.40
2022-10-03T09:29:55.945Z,12.60
2022-10-03T09:35:34.963Z,12.70
2022-10-03T09:41:29.395Z,12.80
2022-10-03T09:47:23.542Z,12.80
2022-10-03T09:52:43.678Z,12.80
2022-10-03T09:58:26.118Z,12.90
2022-10-03T10:04:01.539Z,12.90
2022-10-03T10:09:50.745Z,13.10
2022-10-03T10:15:18.909Z,13.20
2022-10-03T10:20:46.921Z,13.40
2022-10-03T10:26:30.474Z,13.50
2022-10-03T10:32:21.747Z,13.60
2022-10-03T10:37:55.224Z,13.60
2022-10-03T10:43:35.090Z,13.50
2022-10-03T10:49:23.456Z,13.50
2022-10-03T10:55:05.344Z,13.60
2022-10-03T11:00:21.807Z,13.70
2022-10-03T11:05:49.517Z,13.60
2022-10-03T11:11:14.364Z,13.60
2022-10-03T11:17:01.243Z,13.40
2022-10-03T11:22:35.317Z,13.30
2022-10-03T11:28:45.269Z,13.20
2022-10-03T11:34:23.064Z,13.30
2022-10-03T11:39:35.499Z,13.40
2022-10-03T11:44:47.229Z,13.40
2022-10-03T11:50:22.779Z,13.30
2022-10-03T11:55:34.003Z,13.30
2022-10-03T12:00:40.221Z,13.20
2022-10-03T12:06:12.928Z,13.30
2022-10-03T12:11:24.349Z,13.20
2022-10-03T12:16:31.526Z,13.20
2022-10-03T12:21:49.598Z,13.20
2022-10-03T12:26:59.805Z,13.20
2022-10-03T12:32:17.079Z,13.00
2022-10-03T12:37:39.939Z,13.00
2022-10-03T12:42:49.935Z,13.00
2022-10-03T12:48:09.459Z,13.10
2022-10-03T12:53:25.916Z,13.20
2022-10-03T12:58:39.866Z,13.40
2022-10-03T13:03:52.904Z,13.60
2022-10-03T13:09:12.252Z,13.70
2022-10-03T13:14:32.221Z,13.90
2022-10-03T13:19:48.099Z,13.90
2022-10-03T13:25:03.620Z,13.90
2022-10-03T13:30:17.550Z,13.80
2022-10-03T13:35:49.258Z,13.70
2022-10-03T13:41:03.354Z,13.70
2022-10-03T13:46:16.418Z,13.70
2022-10-03T13:51:27.855Z,13.80
2022-10-03T13:56:49.273Z,13.80
2022-10-03T14:02:01.867Z,13.80
2022-10-03T14:07:14.699Z,13.90
2022-10-03T14:12:43.939Z,13.90
2022-10-03T14:18:00.744Z,13.90
2022-10-03T14:23:21.599Z,13.90
2022-10-03T14:28:32.572Z,13.80
2022-10-03T14:33:47.684Z,13.80
2022-10-03T14:39:13.418Z,13.90
2022-10-03T14:44:25.778Z,14.00
2022-10-03T14:49:53.533Z,14.00
2022-10-03T14:54:58.426Z,13.90
2022-10-03T15:00:05.253Z,14.00
2022-10-03T15:05:15.406Z,14.00
2022-10-03T15:10:24.857Z,14.10
2022-10-03T15:15:31.813Z,14.10
2022-10-03T15:20:38.727Z,14.20
2022-10-03T15:25:43.730Z,14.30
2022-10-03T15:30:50.121Z,14.30
2022-10-03T15:35:59.332Z,14.40
2022-10-03T15:41:10.824Z,14.40
2022-10-03T15:46:35.883Z,14.40
2022-10-03T15:51:40.255Z,14.40
2022-10-03T15:56:46.229Z,14.40
2022-10-03T16:01:55.570Z,14.30
2022-10-03T16:07:04.253Z,14.20
2022-10-03T16:12:29.034Z,14.00
2022-10-03T16:17:44.078Z,13.90
2022-10-03T16:22:51.039Z,13.80
2022-10-03T16:27:58.794Z,13.80
2022-10-03T16:33:12.906Z,13.70
2022-10-03T16:38:22.314Z,13.70
2022-10-03T16:43:27.374Z,13.60
2022-10-03T16:48:52.305Z,13.50
2022-10-03T16:53:58.083Z,13.50
2022-10-03T16:59:07.330Z,13.50
2022-10-03T17:04:22.425Z,13.40
2022-10-03T17:09:32.974Z,13.40
2022-10-03T17:14:39.878Z,13.30
2022-10-03T17:19:47.546Z,13.40
2022-10-03T17:24:54.467Z,13.40
2022-10-03T17:30:03.413Z,13.30
2022-10-03T17:35:15.610Z,13.30
2022-10-03T17:40:23.495Z,13.30
2022-10-03T17:45:34.564Z,13.20
2022-10-03T17:50:52.507Z,13.20
2022-10-03T17:55:58.816Z,13.20
2022-10-03T18:01:11.158Z,13.20
2022-10-03T18:06:43.743Z,13.00
2022-10-03T18:11:49.865Z,13.00
2022-10-03T18:16:56.755Z,13.00
2022-10-03T18:22:09.224Z,13.00
2022-10-03T18:27:52.187Z,12.90
2022-10-03T18:33:01.461Z,13.10
2022-10-03T18:38:14.160Z,13.10
2022-10-03T18:43:36.358Z,13.00
2022-10-03T18:49:03.101Z,13.00
2022-10-03T18:54:27.644Z,13.00
2022-10-03T18:59:39.503Z,13.10
2022-10-03T19:04:46.873Z,13.10
2022-10-03T19:10:21.323Z,13.10
2022-10-03T19:15:38.917Z,13.10
2022-10-03T19:20:45.116Z,13.10
2022-10-03T19:25:56.627Z,13.10
2022-10-03T19:31:05.675Z,13.10
2022-10-03T19:36:16.849Z,13.10
2022-10-03T19:41:29.986Z,13.10
2022-10-03T19:46:51.799Z,13.10
2022-10-03T19:52:11.993Z,13.10
2022-10-03T19:57:19.669Z,13.10
2022-10-03T20:02:25.001Z,13.10
2022-10-03T20:07:45.847Z,13.10
2022-10-03T20:12:53.585Z,13.10
2022-10-03T20:18:02.657Z,13.10
2022-10-03T20:23:08.241Z,13.20
2022-10-03T20:28:20.757Z,13.20
2022-10-03T20:33:27.952Z,13.10
2022-10-03T20:38:49.174Z,13.10
2022-10-03T20:44:00.965Z,13.10
2022-10-03T20:49:20.039Z,13.00
2022-10-03T20:54:25.851Z,13.00
2022-10-03T20:59:38.260Z,13.00
2022-10-03T21:04:51.326Z,12.80
2022-10-03T21:09:59.280Z,12.90
2022-10-03T21:15:07.752Z,12.80
2022-10-03T21:20:16.222Z,12.80
2022-10-03T21:25:23.266Z,12.80
2022-10-03T21:30:46.949Z,12.80
2022-10-03T21:35:51.890Z,12.80
2022-10-03T21:41:25.498Z,12.80
2022-10-03T21:46:39.653Z,12.80
2022-10-03T21:52:01.381Z,12.80
2022-10-03T21:57:15.434Z,12.80
2022-10-03T22:02:28.308Z,12.70
2022-10-03T22:07:38.656Z,12.70
2022-10-03T22:12:44.102Z,12.80
2022-10-03T22:17:55.856Z,12.80
2022-10-03T22:23:20.349Z,12.80
2022-10-03T22:28:37.738Z,12.80
2022-10-03T22:33:56.997Z,12.80
2022-10-03T22:39:00.327Z,12.80
2022-10-03T22:44:08.012Z,12.80
2022-10-03T22:49:19.877Z,12.80
2022-10-03T22:54:24.379Z,12.70
2022-10-03T22:59:32.490Z,12.70
2022-10-03T23:04:41.545Z,12.70
2022-10-03T23:09:57.593Z,12.70
2022-10-03T23:15:04.365Z,12.70
2022-10-03T23:20:20.185Z,12.70
2022-10-03T23:25:28.640Z,12.70
2022-10-03T23:30:55.834Z,12.70
2022-10-03T23:36:04.660Z,12.70
2022-10-03T23:41:14.354Z,12.70
2022-10-03T23:46:21.311Z,12.80
2022-10-03T23:51:35.789Z,12.70
2022-10-03T23:56:42.887Z,12.70
